Terminal Aerodrome Forecast
Issued by NWS

Home | Current Version | Previous Version | Text Only | Print | Product List | Glossary On
Versions: 1 2 3 4 5 6 7 8 9 10 11 12
000
FTUS45 KRIW 251700
TAFRKS
TAF
KRKS 251735Z 2518/2618 VRB04KT P6SM SKC
     FM252000 22015G25KT P6SM SKC
     FM260000 21010KT P6SM SKC
     FM260600 23011KT P6SM SCT060=

USA.gov is the U.S. government's official web portal to all federal, state and local government web resources and services.